Terminal Aerodrome Forecast
Issued by NWS Lake Charles, LA

Home | Current Version | Previous Version | Text Only | Print | Product List | Glossary On
Versions: 1 2 3 4 5 6 7 8 9 10 11 12 13 14 15 16 17 18 19 20 21
000
FTUS44 KLCH 230312 AAA
TAFARA
TAF AMD
KARA 230312Z 2303/2324 30020G30KT P6SM VCSH SCT070
     FM230600 30018G26KT P6SM SKC
     FM231200 33010KT P6SM SKC=

USA.gov is the U.S. government's official web portal to all federal, state and local government web resources and services.